Los Angeles, California
Traffic Map
Current Weather Conditions
Los Angeles, California
Clear
Clear
65°
Feels Like: 65°
Wind Chill: 65° Ceiling: Unl
Heat Index: 65° Visibility: 10mi
Dew Point: 44° Wind: 0mph
Humidity: 47% Direction: ° ()
Pressure: 30.05in Gusts: 0mph
Raw Report DataKCQT 020147Z AUTO 00000KT 10SM CLR 18/07 A3005 RMK AO2 SLP176 T01830067
Traffic Incident Summary
Active as of:
Severity:
Category:
InformationThere was an issue retrieving the traffic information for this location. Please try a different location or try again shortly.
Advertisements
Track Severe Weather on mobile